createdAt,value
2023-04-16T00:00:52.007Z,1421.00
2023-04-16T00:01:52.118Z,1414.00
2023-04-16T00:02:52.275Z,1421.00
2023-04-16T00:03:52.428Z,1423.00
2023-04-16T00:04:52.209Z,1425.00
2023-04-16T00:05:52.177Z,1429.00
2023-04-16T00:06:52.208Z,1409.00
2023-04-16T00:07:52.239Z,1419.00
2023-04-16T00:08:52.292Z,1416.00
2023-04-16T00:09:52.337Z,1411.00
2023-04-16T00:10:52.353Z,1411.00
2023-04-16T00:11:54.431Z,1410.00
2023-04-16T00:12:52.427Z,1404.00
2023-04-16T00:13:52.455Z,1405.00
2023-04-16T00:14:52.507Z,1414.00
2023-04-16T00:15:52.541Z,1413.00
2023-04-16T00:16:52.646Z,1410.00
2023-04-16T00:17:52.823Z,1401.00
2023-04-16T00:18:52.684Z,1400.00
2023-04-16T00:19:52.669Z,1416.00
2023-04-16T00:20:52.704Z,1407.00
2023-04-16T00:21:52.721Z,1394.00
2023-04-16T00:22:52.751Z,1414.00
2023-04-16T00:23:52.799Z,1400.00
2023-04-16T00:24:52.843Z,1398.00
2023-04-16T00:25:52.807Z,1399.00
2023-04-16T00:26:52.776Z,1400.00
2023-04-16T00:27:52.757Z,1402.00
2023-04-16T00:28:52.752Z,1404.00
2023-04-16T00:29:52.702Z,1414.00
2023-04-16T00:30:52.736Z,1404.00
2023-04-16T00:31:52.647Z,1409.00
2023-04-16T00:32:52.665Z,1407.00
2023-04-16T00:33:52.595Z,1403.00
2023-04-16T00:34:52.561Z,1407.00
2023-04-16T00:35:52.596Z,1399.00
2023-04-16T00:36:52.648Z,1398.00
2023-04-16T00:37:52.680Z,1390.00
2023-04-16T00:38:52.729Z,1395.00
2023-04-16T00:39:52.745Z,1388.00
2023-04-16T00:40:52.796Z,1398.00
2023-04-16T00:41:52.846Z,1399.00
2023-04-16T00:42:52.880Z,1391.00
2023-04-16T00:43:52.931Z,1387.00
2023-04-16T00:44:52.977Z,1391.00
2023-04-16T00:45:52.947Z,1392.00
2023-04-16T00:46:52.908Z,1393.00
2023-04-16T00:47:52.923Z,1395.00
2023-04-16T00:48:52.861Z,1392.00
2023-04-16T00:49:52.825Z,1381.00
2023-04-16T00:50:52.795Z,1392.00
2023-04-16T00:51:52.774Z,1393.00
2023-04-16T00:52:52.773Z,1397.00
2023-04-16T00:53:52.716Z,1394.00
2023-04-16T00:54:52.721Z,1402.00
2023-04-16T00:55:52.669Z,1401.00
2023-04-16T00:56:52.680Z,1403.00
2023-04-16T00:57:52.656Z,1392.00
2023-04-16T00:58:52.609Z,1395.00
2023-04-16T00:59:52.588Z,1389.00
2023-04-16T01:00:52.626Z,1393.00
2023-04-16T01:01:52.801Z,1389.00
2023-04-16T01:02:52.757Z,1388.00
2023-04-16T01:03:52.919Z,1388.00
2023-04-16T01:04:52.785Z,1387.00
2023-04-16T01:05:52.825Z,1392.00
2023-04-16T01:06:52.867Z,1387.00
2023-04-16T01:07:52.904Z,1389.00
2023-04-16T01:08:52.962Z,1375.00
2023-04-16T01:09:53.016Z,1390.00
2023-04-16T01:10:53.058Z,1383.00
2023-04-16T01:11:53.101Z,1378.00
2023-04-16T01:12:53.146Z,1381.00
2023-04-16T01:13:53.210Z,1393.00
2023-04-16T01:14:53.220Z,1365.00
2023-04-16T01:15:53.311Z,1374.00
2023-04-16T01:16:53.317Z,1379.00
2023-04-16T01:17:53.382Z,1368.00
2023-04-16T01:18:53.363Z,1380.00
2023-04-16T01:19:53.418Z,1365.00
2023-04-16T01:20:53.477Z,1378.00
2023-04-16T01:21:53.488Z,1373.00
2023-04-16T01:22:53.519Z,1368.00
2023-04-16T01:23:53.564Z,1365.00
2023-04-16T01:24:53.609Z,1377.00
2023-04-16T01:25:53.647Z,1362.00
2023-04-16T01:26:53.684Z,1375.00
2023-04-16T01:27:53.730Z,1370.00
2023-04-16T01:28:53.769Z,1382.00
2023-04-16T01:29:53.831Z,1365.00
2023-04-16T01:30:53.897Z,1375.00
2023-04-16T01:31:53.968Z,1372.00
2023-04-16T01:32:54.013Z,1369.00
2023-04-16T01:33:53.994Z,1364.00
2023-04-16T01:34:54.077Z,1370.00
2023-04-16T01:35:54.092Z,1357.00
2023-04-16T01:36:54.183Z,1365.00
2023-04-16T01:37:54.196Z,1364.00
2023-04-16T01:38:54.237Z,1352.00
2023-04-16T01:39:54.283Z,1366.00
2023-04-16T01:40:54.316Z,1348.00
2023-04-16T01:41:54.375Z,1362.00
2023-04-16T01:42:54.423Z,1356.00
2023-04-16T01:43:54.465Z,1358.00
2023-04-16T01:44:54.504Z,1361.00
2023-04-16T01:45:54.548Z,1357.00
2023-04-16T01:46:54.636Z,1363.00
2023-04-16T01:47:54.685Z,1354.00
2023-04-16T01:48:54.670Z,1351.00
2023-04-16T01:49:54.709Z,1359.00
2023-04-16T01:50:54.754Z,1347.00
2023-04-16T01:51:54.768Z,1352.00
2023-04-16T01:52:54.836Z,1349.00
2023-04-16T01:53:54.879Z,1358.00
2023-04-16T01:54:54.887Z,1353.00
2023-04-16T01:55:54.916Z,1348.00
2023-04-16T01:56:54.954Z,1347.00
2023-04-16T01:57:54.923Z,1348.00
2023-04-16T01:58:54.893Z,1349.00
2023-04-16T01:59:54.842Z,1352.00
2023-04-16T02:00:54.848Z,1358.00
2023-04-16T02:01:54.907Z,1356.00
2023-04-16T02:02:54.980Z,1351.00
2023-04-16T02:03:54.850Z,1353.00
2023-04-16T02:04:54.731Z,1351.00
2023-04-16T02:05:54.689Z,1339.00
2023-04-16T02:06:54.650Z,1348.00
2023-04-16T02:07:54.626Z,1348.00
2023-04-16T02:08:54.626Z,1352.00
2023-04-16T02:09:54.705Z,1348.00
2023-04-16T02:10:54.721Z,1345.00
2023-04-16T02:11:54.746Z,1356.00
2023-04-16T02:12:54.795Z,1340.00
2023-04-16T02:13:54.779Z,1345.00
2023-04-16T02:14:54.768Z,1339.00
2023-04-16T02:15:54.829Z,1348.00
2023-04-16T02:16:54.907Z,1349.00
2023-04-16T02:17:54.890Z,1338.00
2023-04-16T02:18:54.889Z,1329.00
2023-04-16T02:19:54.921Z,1341.00
2023-04-16T02:20:54.968Z,1339.00
2023-04-16T02:21:54.973Z,1345.00
2023-04-16T02:22:54.992Z,1333.00
2023-04-16T02:23:55.026Z,1336.00
2023-04-16T02:24:55.045Z,1341.00
2023-04-16T02:25:55.080Z,1320.00
2023-04-16T02:26:55.128Z,1327.00
2023-04-16T02:27:55.179Z,1317.00
2023-04-16T02:28:55.216Z,1336.00
2023-04-16T02:29:55.239Z,1340.00
2023-04-16T02:30:55.284Z,1327.00
2023-04-16T02:31:55.375Z,1328.00
2023-04-16T02:32:55.382Z,1345.00
2023-04-16T02:33:55.367Z,1321.00
2023-04-16T02:34:55.437Z,1327.00
2023-04-16T02:35:55.480Z,1315.00
2023-04-16T02:36:55.493Z,1329.00
2023-04-16T02:37:55.552Z,1316.00
2023-04-16T02:38:55.578Z,1320.00
2023-04-16T02:39:55.634Z,1328.00
2023-04-16T02:40:55.652Z,1326.00
2023-04-16T02:41:55.686Z,1322.00
2023-04-16T02:42:55.741Z,1320.00
2023-04-16T02:43:55.739Z,1323.00
2023-04-16T02:44:55.795Z,1312.00
2023-04-16T02:45:55.838Z,1283.00
2023-04-16T02:46:55.856Z,1216.00
2023-04-16T02:47:55.920Z,1180.00
2023-04-16T02:48:55.879Z,1118.00
2023-04-16T02:49:55.866Z,1019.00
2023-04-16T02:50:55.874Z,837.00
2023-04-16T02:51:55.922Z,734.00
2023-04-16T02:52:56.001Z,632.00
2023-04-16T02:53:55.964Z,586.00
2023-04-16T02:54:55.986Z,546.00
2023-04-16T02:55:55.961Z,505.00
2023-04-16T02:56:55.959Z,500.00
2023-04-16T02:57:55.970Z,499.00
2023-04-16T02:58:55.983Z,498.00
2023-04-16T02:59:55.991Z,500.00
2023-04-16T03:00:56.036Z,495.00
2023-04-16T03:01:56.108Z,498.00
2023-04-16T03:02:56.171Z,500.00
2023-04-16T03:03:56.034Z,500.00
2023-04-16T03:04:56.020Z,500.00
2023-04-16T03:05:56.043Z,500.00
2023-04-16T03:06:56.054Z,500.00
2023-04-16T03:07:56.055Z,497.00
2023-04-16T03:08:56.063Z,501.00
2023-04-16T03:09:56.072Z,500.00
2023-04-16T03:10:56.081Z,504.00
2023-04-16T03:11:56.124Z,508.00
2023-04-16T03:12:56.156Z,499.00
2023-04-16T03:13:56.158Z,500.00
2023-04-16T03:14:56.168Z,500.00
2023-04-16T03:15:56.210Z,502.00
2023-04-16T03:16:56.197Z,500.00
2023-04-16T03:17:56.289Z,500.00
2023-04-16T03:18:56.251Z,501.00
2023-04-16T03:19:56.243Z,500.00
2023-04-16T03:20:56.280Z,501.00
2023-04-16T03:21:56.293Z,502.00
2023-04-16T03:22:56.309Z,500.00
2023-04-16T03:23:56.352Z,500.00
2023-04-16T03:24:56.408Z,500.00
2023-04-16T03:25:56.395Z,510.00
2023-04-16T03:26:56.439Z,500.00
2023-04-16T03:27:56.463Z,505.00
2023-04-16T03:28:56.498Z,505.00
2023-04-16T03:29:56.513Z,505.00
2023-04-16T03:30:56.600Z,500.00
2023-04-16T03:31:56.583Z,507.00
2023-04-16T03:32:56.640Z,500.00
2023-04-16T03:33:56.660Z,500.00
2023-04-16T03:34:56.687Z,513.00
2023-04-16T03:35:56.719Z,527.00
2023-04-16T03:36:56.771Z,515.00
2023-04-16T03:37:56.799Z,510.00
2023-04-16T03:38:56.844Z,507.00
2023-04-16T03:39:56.895Z,503.00
2023-04-16T03:40:56.924Z,499.00
2023-04-16T03:41:56.951Z,504.00
2023-04-16T03:42:56.989Z,502.00
2023-04-16T03:43:57.026Z,501.00
2023-04-16T03:44:57.009Z,496.00
2023-04-16T03:45:57.018Z,497.00
2023-04-16T03:46:57.092Z,494.00
2023-04-16T03:47:57.020Z,489.00
2023-04-16T03:48:56.966Z,487.00
2023-04-16T03:49:56.955Z,500.00
2023-04-16T03:50:56.935Z,506.00
2023-04-16T03:51:56.930Z,502.00
2023-04-16T03:52:56.916Z,506.00
2023-04-16T03:53:56.903Z,503.00
2023-04-16T03:54:56.945Z,506.00
2023-04-16T03:55:57.002Z,500.00
2023-04-16T03:56:57.066Z,503.00
2023-04-16T03:57:57.094Z,507.00
2023-04-16T03:58:57.155Z,499.00
2023-04-16T03:59:57.192Z,506.00
2023-04-16T04:00:57.248Z,501.00
2023-04-16T04:01:57.335Z,511.00
2023-04-16T04:02:57.537Z,500.00
2023-04-16T04:03:57.459Z,503.00
2023-04-16T04:04:57.505Z,507.00
2023-04-16T04:05:57.502Z,510.00
2023-04-16T04:06:57.533Z,504.00
2023-04-16T04:07:57.585Z,513.00
2023-04-16T04:08:57.648Z,517.00
2023-04-16T04:09:57.632Z,510.00
2023-04-16T04:10:57.617Z,509.00
2023-04-16T04:11:57.610Z,504.00
2023-04-16T04:12:57.578Z,503.00
2023-04-16T04:13:57.585Z,515.00
2023-04-16T04:14:57.563Z,507.00
2023-04-16T04:15:57.572Z,502.00
2023-04-16T04:16:57.519Z,508.00
2023-04-16T04:17:57.584Z,502.00
2023-04-16T04:18:57.612Z,511.00
2023-04-16T04:20:01.209Z,517.00
2023-04-16T04:20:57.627Z,515.00
2023-04-16T04:21:57.595Z,518.00
2023-04-16T04:22:57.586Z,515.00
2023-04-16T04:23:57.574Z,517.00
2023-04-16T04:24:57.553Z,512.00
2023-04-16T04:25:57.603Z,511.00
2023-04-16T04:26:57.528Z,509.00
2023-04-16T04:27:57.507Z,505.00
2023-04-16T04:28:57.518Z,511.00
2023-04-16T04:29:57.478Z,502.00
2023-04-16T04:30:57.471Z,503.00
2023-04-16T04:31:57.470Z,500.00
2023-04-16T04:32:57.472Z,504.00
2023-04-16T04:33:57.405Z,501.00
2023-04-16T04:34:57.410Z,501.00
2023-04-16T04:35:57.378Z,504.00
2023-04-16T04:36:57.365Z,503.00
2023-04-16T04:37:57.355Z,509.00
2023-04-16T04:38:57.350Z,505.00
2023-04-16T04:39:57.406Z,503.00
2023-04-16T04:40:57.442Z,507.00
2023-04-16T04:41:57.474Z,500.00
2023-04-16T04:42:57.484Z,510.00
2023-04-16T04:43:57.484Z,506.00
2023-04-16T04:44:57.504Z,504.00
2023-04-16T04:45:57.573Z,505.00
2023-04-16T04:46:57.523Z,503.00
2023-04-16T04:47:57.606Z,513.00
2023-04-16T04:48:57.520Z,504.00
2023-04-16T04:49:57.577Z,502.00
2023-04-16T04:50:57.536Z,500.00
2023-04-16T04:51:57.561Z,503.00
2023-04-16T04:52:57.560Z,501.00
2023-04-16T04:53:57.588Z,506.00
2023-04-16T04:54:57.601Z,509.00
2023-04-16T04:56:08.948Z,503.00
2023-04-16T04:56:58.580Z,499.00
2023-04-16T04:57:57.575Z,486.00
2023-04-16T04:58:57.578Z,487.00
2023-04-16T04:59:57.568Z,485.00
2023-04-16T05:00:57.572Z,487.00
2023-04-16T05:01:57.575Z,503.00
2023-04-16T05:02:57.625Z,511.00
2023-04-16T05:03:57.624Z,502.00
2023-04-16T05:04:57.583Z,521.00
2023-04-16T05:05:57.547Z,509.00
2023-04-16T05:06:57.514Z,509.00
2023-04-16T05:07:57.517Z,508.00
2023-04-16T05:08:57.495Z,521.00
2023-04-16T05:09:57.500Z,506.00
2023-04-16T05:10:57.481Z,520.00
2023-04-16T05:11:57.489Z,527.00
2023-04-16T05:12:57.470Z,529.00
2023-04-16T05:13:57.458Z,533.00
2023-04-16T05:14:57.434Z,534.00
2023-04-16T05:15:57.445Z,540.00
2023-04-16T05:16:57.458Z,540.00
2023-04-16T05:17:57.412Z,553.00
2023-04-16T05:18:57.393Z,552.00
2023-04-16T05:19:57.394Z,558.00
2023-04-16T05:20:57.371Z,562.00
2023-04-16T05:21:57.393Z,552.00
2023-04-16T05:22:57.353Z,559.00
2023-04-16T05:23:57.427Z,572.00
2023-04-16T05:24:57.326Z,568.00
2023-04-16T05:25:57.333Z,574.00
2023-04-16T05:26:57.342Z,576.00
2023-04-16T05:27:57.363Z,579.00
2023-04-16T05:28:57.337Z,586.00
2023-04-16T05:29:57.276Z,589.00
2023-04-16T05:30:57.265Z,598.00
2023-04-16T05:31:57.245Z,592.00
2023-04-16T05:32:57.247Z,593.00
2023-04-16T05:33:57.256Z,603.00
2023-04-16T05:34:57.204Z,603.00
2023-04-16T05:35:57.193Z,605.00
2023-04-16T05:36:57.178Z,607.00
2023-04-16T05:37:57.177Z,617.00
2023-04-16T05:38:57.178Z,619.00
2023-04-16T05:39:57.190Z,615.00
2023-04-16T05:40:57.155Z,624.00
2023-04-16T05:41:57.158Z,612.00
2023-04-16T05:42:57.131Z,623.00
2023-04-16T05:43:57.269Z,629.00
2023-04-16T05:44:57.138Z,627.00
2023-04-16T05:45:57.142Z,637.00
2023-04-16T05:46:57.109Z,647.00
2023-04-16T05:47:57.098Z,647.00
2023-04-16T05:48:57.072Z,642.00
2023-04-16T05:49:57.068Z,658.00
2023-04-16T05:50:57.050Z,661.00
2023-04-16T05:51:57.029Z,669.00
2023-04-16T05:52:57.028Z,670.00
2023-04-16T05:53:57.025Z,681.00
2023-04-16T05:54:57.018Z,684.00
2023-04-16T05:55:57.005Z,708.00
2023-04-16T05:56:57.029Z,720.00
2023-04-16T05:57:57.023Z,762.00
2023-04-16T05:58:57.025Z,763.00
2023-04-16T05:59:57.057Z,813.00
2023-04-16T06:00:57.061Z,845.00
2023-04-16T06:01:57.052Z,855.00
2023-04-16T06:02:57.168Z,874.00
2023-04-16T06:03:57.163Z,864.00
2023-04-16T06:04:57.055Z,887.00
2023-04-16T06:05:57.096Z,867.00
2023-04-16T06:06:57.056Z,856.00
2023-04-16T06:07:57.062Z,869.00
2023-04-16T06:08:57.074Z,866.00
2023-04-16T06:09:57.074Z,875.00
2023-04-16T06:10:57.088Z,887.00
2023-04-16T06:11:57.088Z,886.00
2023-04-16T06:12:57.087Z,861.00
2023-04-16T06:13:57.089Z,866.00
2023-04-16T06:14:57.093Z,847.00
2023-04-16T06:15:57.147Z,831.00
2023-04-16T06:16:57.101Z,831.00
2023-04-16T06:17:58.065Z,808.00
2023-04-16T06:18:57.157Z,793.00
2023-04-16T06:19:57.127Z,824.00
2023-04-16T06:20:57.140Z,833.00
2023-04-16T06:21:57.113Z,808.00
2023-04-16T06:22:57.118Z,797.00
2023-04-16T06:23:57.127Z,802.00
2023-04-16T06:24:57.126Z,773.00
2023-04-16T06:25:57.126Z,759.00
2023-04-16T06:26:57.123Z,744.00
2023-04-16T06:27:57.123Z,749.00
2023-04-16T06:28:57.128Z,741.00
2023-04-16T06:29:57.139Z,732.00
2023-04-16T06:30:57.147Z,706.00
2023-04-16T06:31:57.156Z,699.00
2023-04-16T06:32:57.163Z,677.00
2023-04-16T06:33:57.164Z,664.00
2023-04-16T06:34:57.155Z,665.00
2023-04-16T06:35:57.162Z,657.00
2023-04-16T06:36:57.150Z,654.00
2023-04-16T06:37:57.157Z,650.00
2023-04-16T06:38:57.174Z,652.00
2023-04-16T06:39:57.170Z,658.00
2023-04-16T06:40:57.170Z,653.00
2023-04-16T06:41:57.184Z,649.00
2023-04-16T06:42:57.170Z,651.00
2023-04-16T06:43:57.227Z,654.00
2023-04-16T06:44:57.185Z,644.00
2023-04-16T06:45:57.195Z,649.00
2023-04-16T06:46:57.185Z,645.00
2023-04-16T06:47:57.200Z,651.00
2023-04-16T06:48:57.216Z,641.00
2023-04-16T06:49:57.181Z,628.00
2023-04-16T06:50:57.166Z,617.00
2023-04-16T06:51:57.168Z,616.00
2023-04-16T06:52:57.198Z,610.00
2023-04-16T06:53:57.202Z,597.00
2023-04-16T06:54:57.189Z,598.00
2023-04-16T06:55:57.173Z,579.00
2023-04-16T06:56:57.187Z,578.00
2023-04-16T06:57:57.182Z,579.00
2023-04-16T06:58:57.204Z,577.00
2023-04-16T06:59:57.221Z,564.00
2023-04-16T07:00:57.207Z,573.00
2023-04-16T07:01:57.276Z,565.00
2023-04-16T07:02:58.745Z,564.00
2023-04-16T07:03:57.314Z,554.00
2023-04-16T07:04:57.204Z,551.00
2023-04-16T07:05:57.193Z,548.00
2023-04-16T07:06:57.203Z,548.00
2023-04-16T07:07:57.182Z,547.00
2023-04-16T07:08:57.196Z,536.00
2023-04-16T07:09:57.198Z,538.00
2023-04-16T07:10:57.186Z,536.00
2023-04-16T07:11:57.168Z,538.00
2023-04-16T07:12:57.176Z,530.00
2023-04-16T07:13:57.164Z,530.00
2023-04-16T07:14:57.142Z,530.00
2023-04-16T07:15:57.156Z,524.00
2023-04-16T07:16:57.144Z,530.00
2023-04-16T07:17:57.194Z,531.00
2023-04-16T07:18:57.058Z,534.00
2023-04-16T07:19:57.059Z,537.00
2023-04-16T07:20:57.040Z,536.00
2023-04-16T07:21:57.014Z,528.00
2023-04-16T07:22:56.986Z,531.00
2023-04-16T07:23:56.976Z,523.00
2023-04-16T07:24:56.975Z,524.00
2023-04-16T07:25:56.936Z,523.00
2023-04-16T07:26:56.915Z,524.00
2023-04-16T07:27:56.891Z,523.00
2023-04-16T07:28:56.867Z,523.00
2023-04-16T07:29:56.871Z,523.00
2023-04-16T07:30:56.851Z,523.00
2023-04-16T07:31:56.888Z,524.00
2023-04-16T07:32:56.831Z,524.00
2023-04-16T07:33:56.783Z,525.00
2023-04-16T07:34:56.781Z,521.00
2023-04-16T07:35:56.759Z,521.00
2023-04-16T07:36:56.730Z,515.00
2023-04-16T07:37:56.718Z,522.00
2023-04-16T07:38:56.681Z,516.00
2023-04-16T07:39:57.440Z,522.00
2023-04-16T07:40:56.675Z,515.00
2023-04-16T07:41:56.629Z,512.00
2023-04-16T07:42:56.615Z,512.00
2023-04-16T07:43:56.610Z,513.00
2023-04-16T07:44:56.611Z,509.00
2023-04-16T07:45:56.599Z,506.00
2023-04-16T07:46:56.584Z,503.00
2023-04-16T07:47:56.623Z,507.00
2023-04-16T07:48:56.495Z,516.00
2023-04-16T07:49:56.475Z,506.00
2023-04-16T07:50:56.456Z,506.00
2023-04-16T07:51:56.431Z,507.00
2023-04-16T07:52:56.426Z,505.00
2023-04-16T07:53:56.397Z,509.00
2023-04-16T07:54:56.385Z,506.00
2023-04-16T07:55:56.373Z,503.00
2023-04-16T07:56:56.394Z,503.00
2023-04-16T07:57:56.321Z,505.00
2023-04-16T07:58:56.306Z,503.00
2023-04-16T07:59:56.286Z,502.00
2023-04-16T08:00:56.280Z,516.00
2023-04-16T08:01:56.271Z,513.00
2023-04-16T08:02:56.379Z,517.00
2023-04-16T08:03:56.378Z,504.00
2023-04-16T08:04:56.303Z,510.00
2023-04-16T08:05:56.168Z,510.00
2023-04-16T08:06:56.223Z,505.00
2023-04-16T08:07:56.136Z,511.00
2023-04-16T08:08:56.122Z,511.00
2023-04-16T08:09:56.095Z,518.00
2023-04-16T08:10:56.170Z,529.00
2023-04-16T08:11:56.072Z,523.00
2023-04-16T08:12:56.052Z,523.00
2023-04-16T08:13:56.035Z,524.00
2023-04-16T08:14:56.025Z,519.00
2023-04-16T08:15:56.027Z,514.00
2023-04-16T08:16:55.989Z,518.00
2023-04-16T08:17:55.976Z,512.00
2023-04-16T08:18:55.946Z,524.00
2023-04-16T08:19:55.910Z,523.00
2023-04-16T08:20:55.899Z,526.00
2023-04-16T08:21:55.884Z,532.00
2023-04-16T08:22:55.877Z,517.00
2023-04-16T08:23:55.832Z,526.00
2023-04-16T08:24:55.797Z,529.00
2023-04-16T08:25:55.797Z,528.00
2023-04-16T08:27:00.318Z,522.00
2023-04-16T08:27:56.736Z,522.00
2023-04-16T08:28:55.714Z,522.00
2023-04-16T08:29:55.722Z,520.00
2023-04-16T08:30:55.688Z,529.00
2023-04-16T08:31:55.846Z,533.00
2023-04-16T08:32:55.681Z,526.00
2023-04-16T08:33:55.607Z,528.00
2023-04-16T08:34:55.602Z,525.00
2023-04-16T08:35:55.584Z,524.00
2023-04-16T08:36:55.553Z,524.00
2023-04-16T08:37:55.526Z,516.00
2023-04-16T08:38:55.505Z,527.00
2023-04-16T08:39:55.472Z,521.00
2023-04-16T08:40:55.473Z,525.00
2023-04-16T08:41:55.433Z,530.00
2023-04-16T08:42:55.410Z,528.00
2023-04-16T08:43:55.402Z,522.00
2023-04-16T08:44:55.351Z,529.00
2023-04-16T08:45:55.341Z,526.00
2023-04-16T08:46:55.403Z,545.00
2023-04-16T08:47:55.342Z,556.00
2023-04-16T08:48:55.277Z,570.00
2023-04-16T08:49:57.425Z,582.00
2023-04-16T08:50:55.438Z,624.00
2023-04-16T08:51:55.230Z,675.00
2023-04-16T08:52:55.180Z,726.00
2023-04-16T08:53:55.151Z,818.00
2023-04-16T08:54:56.474Z,871.00
2023-04-16T08:55:55.125Z,927.00
2023-04-16T08:56:55.115Z,1006.00
2023-04-16T08:57:55.113Z,1073.00
2023-04-16T08:58:55.109Z,1074.00
2023-04-16T08:59:55.077Z,1086.00
2023-04-16T09:00:55.052Z,1119.00
2023-04-16T09:01:55.131Z,1182.00
2023-04-16T09:02:55.239Z,1302.00
2023-04-16T09:03:55.155Z,1349.00
2023-04-16T09:04:55.032Z,1384.00
2023-04-16T09:05:54.956Z,1424.00
2023-04-16T09:06:54.980Z,1479.00
2023-04-16T09:07:54.935Z,1516.00
2023-04-16T09:08:54.971Z,1550.00
2023-04-16T09:09:54.993Z,1583.00
2023-04-16T09:10:55.005Z,1612.00
2023-04-16T09:11:55.052Z,1649.00
2023-04-16T09:12:55.033Z,1696.00
2023-04-16T09:13:55.067Z,1726.00
2023-04-16T09:14:55.042Z,1749.00
2023-04-16T09:15:55.087Z,1789.00
2023-04-16T09:16:55.056Z,1819.00
2023-04-16T09:17:55.070Z,1851.00
2023-04-16T09:18:55.056Z,1881.00
2023-04-16T09:19:55.066Z,1900.00
2023-04-16T09:20:55.064Z,1938.00
2023-04-16T09:21:55.057Z,1958.00
2023-04-16T09:22:55.124Z,1994.00
2023-04-16T09:23:55.135Z,2023.00
2023-04-16T09:24:55.095Z,2062.00
2023-04-16T09:25:55.082Z,2080.00
2023-04-16T09:26:55.104Z,2101.00
2023-04-16T09:27:55.055Z,2134.00
2023-04-16T09:28:55.063Z,2145.00
2023-04-16T09:29:55.029Z,2169.00
2023-04-16T09:30:54.998Z,2190.00
2023-04-16T09:31:55.050Z,2220.00
2023-04-16T09:32:55.017Z,2248.00
2023-04-16T09:33:55.018Z,2264.00
2023-04-16T09:34:55.082Z,2286.00
2023-04-16T09:35:55.162Z,2300.00
2023-04-16T09:36:55.176Z,2326.00
2023-04-16T09:37:55.181Z,2337.00
2023-04-16T09:38:57.422Z,2338.00
2023-04-16T09:39:55.300Z,2342.00
2023-04-16T09:40:55.364Z,2362.00
2023-04-16T09:41:55.393Z,2385.00
2023-04-16T09:42:55.448Z,2424.00
2023-04-16T09:43:55.465Z,2437.00
2023-04-16T09:44:57.239Z,2451.00
2023-04-16T09:45:55.492Z,2473.00
2023-04-16T09:46:55.478Z,2487.00
2023-04-16T09:47:55.514Z,2489.00
2023-04-16T09:48:55.436Z,2493.00
2023-04-16T09:49:55.402Z,2513.00
2023-04-16T09:50:55.381Z,2521.00
2023-04-16T09:51:55.374Z,2528.00
2023-04-16T09:52:55.348Z,2546.00
2023-04-16T09:53:55.337Z,2551.00
2023-04-16T09:54:55.330Z,2557.00
2023-04-16T09:55:55.297Z,2575.00
2023-04-16T09:56:55.297Z,2573.00
2023-04-16T09:57:55.267Z,2590.00
2023-04-16T09:58:55.258Z,2589.00
2023-04-16T09:59:55.226Z,2600.00
2023-04-16T10:00:55.253Z,2601.00
2023-04-16T10:02:12.232Z,2611.00
2023-04-16T10:02:55.265Z,2612.00
2023-04-16T10:03:55.323Z,2615.00
2023-04-16T10:04:55.178Z,2625.00
2023-04-16T10:05:55.158Z,2642.00
2023-04-16T10:06:55.112Z,2649.00
2023-04-16T10:07:55.099Z,2661.00
2023-04-16T10:08:55.081Z,2664.00
2023-04-16T10:09:55.084Z,2686.00
2023-04-16T10:10:55.041Z,2681.00
2023-04-16T10:11:55.024Z,2677.00
2023-04-16T10:12:55.014Z,2687.00
2023-04-16T10:13:55.021Z,2697.00
2023-04-16T10:14:55.052Z,2704.00
2023-04-16T10:15:55.068Z,2699.00
2023-04-16T10:16:55.144Z,2708.00
2023-04-16T10:17:55.189Z,2711.00
2023-04-16T10:18:55.175Z,2714.00
2023-04-16T10:19:55.184Z,2718.00
2023-04-16T10:20:55.209Z,2718.00
2023-04-16T10:21:55.258Z,2717.00
2023-04-16T10:22:55.214Z,2718.00
2023-04-16T10:23:55.225Z,2721.00
2023-04-16T10:24:55.170Z,2725.00
2023-04-16T10:25:57.325Z,2734.00
2023-04-16T10:26:55.196Z,2750.00
2023-04-16T10:27:55.175Z,2752.00
2023-04-16T10:28:55.188Z,2759.00
2023-04-16T10:29:55.172Z,2762.00
2023-04-16T10:30:55.192Z,2751.00
2023-04-16T10:31:55.176Z,2737.00
2023-04-16T10:32:55.175Z,2748.00
2023-04-16T10:33:55.169Z,2744.00
2023-04-16T10:34:55.158Z,2767.00
2023-04-16T10:36:07.011Z,2763.00
2023-04-16T10:36:56.139Z,2764.00
2023-04-16T10:37:55.086Z,2766.00
2023-04-16T10:38:55.065Z,2767.00
2023-04-16T10:39:55.030Z,2783.00
2023-04-16T10:40:55.006Z,2793.00
2023-04-16T10:41:54.975Z,2795.00
2023-04-16T10:42:54.969Z,2794.00
2023-04-16T10:43:54.949Z,2770.00
2023-04-16T10:44:54.891Z,2791.00
2023-04-16T10:45:54.922Z,2776.00
2023-04-16T10:46:54.851Z,2793.00
2023-04-16T10:47:54.876Z,2795.00
2023-04-16T10:48:54.792Z,2804.00
2023-04-16T10:49:54.762Z,2787.00
2023-04-16T10:50:54.726Z,2781.00
2023-04-16T10:51:54.727Z,2781.00
2023-04-16T10:52:54.690Z,2795.00
2023-04-16T10:53:54.650Z,2794.00
2023-04-16T10:54:54.645Z,2757.00
2023-04-16T10:55:54.589Z,2785.00
2023-04-16T10:56:54.561Z,2807.00
2023-04-16T10:57:54.572Z,2802.00
2023-04-16T10:58:54.529Z,2764.00
2023-04-16T10:59:54.505Z,2766.00
2023-04-16T11:00:54.482Z,2770.00
2023-04-16T11:01:54.531Z,2784.00
2023-04-16T11:02:54.612Z,2782.00
2023-04-16T11:03:54.604Z,2814.00
2023-04-16T11:04:54.467Z,2795.00
2023-04-16T11:05:54.352Z,2815.00
2023-04-16T11:06:54.321Z,2778.00
2023-04-16T11:07:54.313Z,2777.00
2023-04-16T11:08:55.266Z,2817.00
2023-04-16T11:09:54.293Z,2823.00
2023-04-16T11:10:54.251Z,2810.00
2023-04-16T11:11:54.195Z,2811.00
2023-04-16T11:12:54.232Z,2813.00
2023-04-16T11:13:54.152Z,2773.00
2023-04-16T11:14:54.142Z,2809.00
2023-04-16T11:15:54.125Z,2797.00
2023-04-16T11:16:54.071Z,2786.00
2023-04-16T11:17:54.060Z,2847.00
2023-04-16T11:18:55.614Z,2780.00
2023-04-16T11:19:53.978Z,2815.00
2023-04-16T11:20:53.927Z,2801.00
2023-04-16T11:21:53.893Z,2795.00
2023-04-16T11:22:53.894Z,2817.00
2023-04-16T11:23:53.857Z,2818.00
2023-04-16T11:24:53.817Z,2820.00
2023-04-16T11:25:53.791Z,2824.00
2023-04-16T11:26:53.776Z,2824.00
2023-04-16T11:27:53.818Z,2832.00
2023-04-16T11:28:53.767Z,2823.00
2023-04-16T11:29:53.706Z,2825.00
2023-04-16T11:30:53.680Z,2827.00
2023-04-16T11:31:53.707Z,2829.00
2023-04-16T11:32:53.659Z,2837.00
2023-04-16T11:33:53.596Z,2789.00
2023-04-16T11:34:53.564Z,2834.00
2023-04-16T11:35:53.568Z,2823.00
2023-04-16T11:36:53.511Z,2839.00
2023-04-16T11:37:53.493Z,2831.00
2023-04-16T11:38:53.461Z,2794.00
2023-04-16T11:39:53.447Z,2847.00
2023-04-16T11:40:53.558Z,2831.00
2023-04-16T11:41:53.375Z,2799.00
2023-04-16T11:42:53.453Z,2798.00
2023-04-16T11:43:53.325Z,2797.00
2023-04-16T11:44:53.329Z,2822.00
2023-04-16T11:45:53.266Z,2805.00
2023-04-16T11:46:53.292Z,2818.00
2023-04-16T11:47:53.309Z,2824.00
2023-04-16T11:48:53.181Z,2785.00
2023-04-16T11:49:53.160Z,2824.00
2023-04-16T11:50:53.275Z,2825.00
2023-04-16T11:51:53.097Z,2828.00
2023-04-16T11:52:53.092Z,2829.00
2023-04-16T11:53:53.113Z,2823.00
2023-04-16T11:54:53.035Z,2825.00
2023-04-16T11:55:52.986Z,2846.00
2023-04-16T11:56:52.964Z,2832.00
2023-04-16T11:57:52.943Z,2801.00
2023-04-16T11:58:52.901Z,2818.00
2023-04-16T12:00:01.569Z,2809.00
2023-04-16T12:00:53.849Z,2810.00
2023-04-16T12:01:52.961Z,2810.00
2023-04-16T12:02:53.003Z,2821.00
2023-04-16T12:03:52.892Z,2827.00
2023-04-16T12:04:52.912Z,2841.00
2023-04-16T12:05:52.710Z,2836.00
2023-04-16T12:06:52.683Z,2834.00
2023-04-16T12:07:52.651Z,2812.00
2023-04-16T12:08:52.620Z,2828.00
2023-04-16T12:09:52.622Z,2837.00
2023-04-16T12:10:52.568Z,2805.00
2023-04-16T12:11:52.533Z,2827.00
2023-04-16T12:12:52.550Z,2813.00
2023-04-16T12:13:52.487Z,2820.00
2023-04-16T12:14:52.454Z,2816.00
2023-04-16T12:15:52.435Z,2820.00
2023-04-16T12:16:52.445Z,2834.00